Time;durP1;ratioP1;P1;durP2;ratioP2;P2;SDS_P1;SDS_P2;PMS_P1;PMS_P2;Temp;Humidity;BMP_temperature;BMP_pressure;BME280_temperature;BME280_humidity;BME280_pressure;Samples;Min_cycle;Max_cycle;Signal;HPM_P1;HPM_P2
2023/12/20 00:01:40;;;;;;;10.57;7.88;;;;;;;6.89;95.72;98141.41;4075335;29;20213;-91
2023/12/20 00:03:44;;;;;;;10.00;7.72;;;;;;;6.95;95.37;98142.88;4060418;29;20220;-93
2023/12/20 00:05:48;;;;;;;9.55;7.68;;;;;;;6.99;96.41;98137.44;4089644;29;20218;-93
2023/12/20 00:07:50;;;;;;;9.57;6.60;;;;;;;7.01;95.73;98137.34;4072774;29;21139;-92
2023/12/20 00:09:54;;;;;;;9.30;7.13;;;;;;;7.09;96.95;98133.41;4074734;29;20305;-93
2023/12/20 00:11:57;;;;;;;10.25;7.82;;;;;;;7.12;96.61;98135.84;4080368;29;20207;-92
2023/12/20 00:14:02;;;;;;;9.90;8.15;;;;;;;7.12;97.22;98135.84;4061330;29;20222;-92
2023/12/20 00:16:06;;;;;;;22.55;14.48;;;;;;;7.11;96.13;98134.16;4060110;29;20292;-91
2023/12/20 00:18:09;;;;;;;21.70;14.82;;;;;;;7.09;97.46;98131.66;4074123;29;20328;-92
2023/12/20 00:20:13;;;;;;;19.95;13.73;;;;;;;7.08;96.94;98126.53;4090151;29;20205;-94
2023/12/20 00:22:17;;;;;;;30.42;19.70;;;;;;;7.05;96.24;98130.16;4082132;29;20241;-92
2023/12/20 00:24:20;;;;;;;15.25;10.60;;;;;;;7.03;96.24;98124.19;4087677;28;20205;-92
2023/12/20 00:26:23;;;;;;;12.70;9.23;;;;;;;7.00;96.60;98118.34;4076742;29;20217;-91
2023/12/20 00:28:27;;;;;;;11.43;8.90;;;;;;;6.98;96.73;98112.41;4061371;29;20246;-91
2023/12/20 00:30:31;;;;;;;13.80;10.55;;;;;;;6.97;95.85;98109.91;4074670;29;20206;-92
2023/12/20 00:32:34;;;;;;;12.88;9.93;;;;;;;6.98;97.15;98106.41;4076414;29;20226;-91
2023/12/20 00:34:37;;;;;;;13.10;10.20;;;;;;;6.99;96.64;98102.88;4078615;29;20360;-91
2023/12/20 00:36:41;;;;;;;13.35;10.50;;;;;;;6.98;96.16;98103.81;4081071;29;20225;-92
2023/12/20 00:38:44;;;;;;;12.93;11.45;;;;;;;6.98;96.13;98106.41;4077921;29;20706;-92
2023/12/20 00:40:49;;;;;;;13.77;12.18;;;;;;;6.98;95.51;98103.81;4077792;29;20222;-92
2023/12/20 00:42:52;;;;;;;14.98;12.25;;;;;;;6.98;96.21;98101.22;4060542;29;20296;-92
2023/12/20 00:44:56;;;;;;;14.90;11.77;;;;;;;6.97;95.56;98105.56;4063455;29;20843;-91
2023/12/20 00:47:01;;;;;;;17.38;13.77;;;;;;;6.94;96.63;98092.75;4062696;29;20236;-92
2023/12/20 00:49:04;;;;;;;13.10;9.85;;;;;;;6.88;96.66;98090.50;4095665;28;20217;-92
2023/12/20 00:51:07;;;;;;;16.52;11.80;;;;;;;6.88;96.74;98106.03;4093253;28;20262;-92
2023/12/20 00:53:10;;;;;;;16.30;11.45;;;;;;;6.84;96.67;98098.50;4075376;29;20226;-91
2023/12/20 00:55:14;;;;;;;13.63;11.18;;;;;;;6.83;96.42;98096.84;4079855;29;20293;-92
2023/12/20 00:57:16;;;;;;;14.80;11.93;;;;;;;6.82;97.25;98097.75;4074854;29;20219;-92
2023/12/20 00:59:20;;;;;;;14.35;10.32;;;;;;;6.81;96.88;98096.09;4063516;29;20699;-92
2023/12/20 01:01:22;;;;;;;15.30;11.75;;;;;;;6.76;97.18;98095.50;4062974;29;20235;-91
2023/12/20 01:03:27;;;;;;;15.25;10.82;;;;;;;6.76;97.65;98091.16;4063849;29;20211;-91
2023/12/20 01:05:30;;;;;;;14.20;11.43;;;;;;;6.78;97.87;98096.25;4073971;29;20598;-92
2023/12/20 01:07:33;;;;;;;14.32;11.30;;;;;;;6.77;98.68;98094.59;4073256;29;20643;-91
2023/12/20 01:09:37;;;;;;;12.85;10.18;;;;;;;6.78;98.48;98098.84;4063963;29;20246;-91
2023/12/20 01:11:39;;;;;;;12.88;10.23;;;;;;;6.78;98.60;98102.28;4079468;29;20245;-92
2023/12/20 01:13:43;;;;;;;15.65;11.02;;;;;;;6.80;98.27;98107.38;4059785;29;20207;-91
2023/12/20 01:15:47;;;;;;;13.45;10.30;;;;;;;6.82;98.58;98108.97;4077769;29;20204;-92
2023/12/20 01:17:49;;;;;;;13.35;10.00;;;;;;;6.86;98.35;98109.66;4065131;29;20251;-92
2023/12/20 01:19:54;;;;;;;11.88;9.82;;;;;;;6.87;99.13;98108.72;4060927;29;20235;-92
2023/12/20 01:21:56;;;;;;;13.07;9.13;;;;;;;6.89;99.08;98112.09;4076829;29;20302;-92
2023/12/20 01:24:00;;;;;;;11.32;9.00;;;;;;;6.88;99.18;98116.41;4076117;29;20208;-92
2023/12/20 01:26:04;;;;;;;10.95;9.00;;;;;;;6.89;99.43;98112.91;4062225;29;20203;-92
2023/12/20 01:28:07;;;;;;;12.15;9.35;;;;;;;6.91;99.78;98105.88;4067247;29;20228;-92
2023/12/20 01:30:11;;;;;;;11.25;9.15;;;;;;;6.91;99.30;98110.22;4062867;29;20201;-92
2023/12/20 01:32:15;;;;;;;14.65;10.20;;;;;;;6.92;99.23;98110.16;4056167;29;20233;-91
2023/12/20 01:34:18;;;;;;;9.95;6.95;;;;;;;6.90;100.00;98118.91;4059118;29;20237;-92
2023/12/20 01:36:23;;;;;;;11.23;9.52;;;;;;;6.86;100.00;98107.88;4065747;29;20668;-92
2023/12/20 01:38:26;;;;;;;11.65;8.93;;;;;;;6.86;99.76;98122.63;4061978;29;20250;-92
2023/12/20 01:40:29;;;;;;;10.15;7.70;;;;;;;6.87;100.00;98112.16;4072501;29;20626;-93
2023/12/20 01:42:33;;;;;;;10.00;7.40;;;;;;;6.90;100.00;98124.09;4055527;29;20731;-92
2023/12/20 01:44:36;;;;;;;10.45;8.23;;;;;;;6.92;100.00;98117.09;4059646;29;20199;-92
2023/12/20 01:46:39;;;;;;;9.35;7.25;;;;;;;6.97;100.00;98128.06;4063454;29;20205;-92
2023/12/20 01:48:43;;;;;;;9.38;7.32;;;;;;;6.98;100.00;98124.56;4063984;29;20605;-92
2023/12/20 01:50:46;;;;;;;10.27;7.82;;;;;;;6.99;100.00;98123.63;4073892;29;20198;-92
2023/12/20 01:52:52;;;;;;;9.60;6.97;;;;;;;7.01;100.00;98127.81;4078835;29;20216;-92
2023/12/20 01:55:00;;;;;;;8.48;7.22;;;;;;;7.00;100.00;98115.75;4076733;29;20215;-92
2023/12/20 01:57:03;;;;;;;11.15;7.72;;;;;;;6.99;100.00;98114.09;4097905;28;20215;-91
2023/12/20 01:59:08;;;;;;;8.43;6.80;;;;;;;6.98;100.00;98111.59;4078485;29;20243;-92
2023/12/20 02:01:13;;;;;;;8.07;6.00;;;;;;;6.97;100.00;98120.28;4080222;29;20243;-93
2023/12/20 02:03:16;;;;;;;7.75;6.25;;;;;;;6.96;100.00;98118.59;4078405;29;20208;-93
2023/12/20 02:05:19;;;;;;;8.48;6.50;;;;;;;6.98;100.00;98121.97;4063370;29;20203;-92
2023/12/20 02:10:09;;;;;;;6.40;5.40;;;;;;;7.05;100.00;98117.19;4273439;23;20708;-94
2023/12/20 02:12:38;;;;;;;8.52;6.40;;;;;;;7.08;100.00;98114.44;4387246;23;20552;-83
2023/12/20 02:14:42;;;;;;;8.05;5.82;;;;;;;7.12;100.00;98115.91;4084765;28;20222;-84
2023/12/20 02:16:45;;;;;;;6.88;5.40;;;;;;;7.16;100.00;98116.63;4072803;29;20214;-85
2023/12/20 02:18:49;;;;;;;7.80;5.88;;;;;;;7.19;100.00;98114.69;4073802;29;20232;-86
2023/12/20 02:20:53;;;;;;;7.75;6.60;;;;;;;7.23;100.00;98107.56;4077833;29;20285;-85
2023/12/20 02:22:57;;;;;;;8.77;6.80;;;;;;;7.28;100.00;98111.59;4060282;29;20219;-86
2023/12/20 02:25:01;;;;;;;8.55;6.75;;;;;;;7.32;100.00;98107.91;4075610;29;20652;-85
2023/12/20 02:27:07;;;;;;;7.45;5.75;;;;;;;7.36;100.00;98117.19;4077672;29;20228;-86
2023/12/20 02:29:10;;;;;;;8.40;6.40;;;;;;;7.39;100.00;98114.41;4077723;29;20627;-85
2023/12/20 02:31:14;;;;;;;8.35;6.90;;;;;;;7.42;100.00;98116.00;4065328;29;20210;-86
2023/12/20 02:33:17;;;;;;;9.10;6.30;;;;;;;7.43;100.00;98123.72;4078627;29;20665;-85
2023/12/20 02:35:20;;;;;;;8.80;6.57;;;;;;;7.46;100.00;98117.50;4077064;29;20298;-86
2023/12/20 02:37:22;;;;;;;9.52;6.40;;;;;;;7.48;100.00;98109.53;4074163;29;20206;-86
2023/12/20 02:39:27;;;;;;;9.38;6.90;;;;;;;7.49;100.00;98108.63;4059739;29;20327;-86
2023/12/20 02:41:30;;;;;;;9.18;6.47;;;;;;;7.51;100.00;98119.75;4091628;28;20205;-86
2023/12/20 02:43:34;;;;;;;9.02;6.82;;;;;;;7.52;100.00;98123.19;4091873;28;20231;-85
2023/12/20 02:45:37;;;;;;;8.52;6.20;;;;;;;7.53;100.00;98122.25;4076483;29;20206;-86
2023/12/20 02:47:40;;;;;;;8.35;6.30;;;;;;;7.56;100.00;98119.50;4090248;28;20212;-85
2023/12/20 02:49:44;;;;;;;8.40;6.50;;;;;;;7.58;100.00;98118.50;4073715;29;20216;-85
2023/12/20 02:51:47;;;;;;;6.75;5.63;;;;;;;7.60;100.00;98121.00;4077962;29;20234;-85
2023/12/20 02:53:50;;;;;;;10.43;6.55;;;;;;;7.63;100.00;98115.66;4078490;29;20215;-86
2023/12/20 02:55:55;;;;;;;6.70;5.97;;;;;;;7.62;100.00;98116.56;4076019;29;20223;-86
2023/12/20 02:57:58;;;;;;;7.63;5.18;;;;;;;7.63;100.00;98118.25;4076844;29;20676;-86
2023/12/20 03:00:01;;;;;;;6.32;4.93;;;;;;;7.64;100.00;98120.75;4060267;29;20223;-85
2023/12/20 03:02:04;;;;;;;6.60;5.32;;;;;;;7.68;100.00;98121.41;4092824;28;20207;-86
2023/12/20 03:04:07;;;;;;;6.82;5.35;;;;;;;7.68;100.00;98116.22;4073548;29;20235;-86
2023/12/20 03:06:11;;;;;;;6.78;5.25;;;;;;;7.68;100.00;98122.25;4075115;29;20240;-86
2023/12/20 03:08:14;;;;;;;6.07;5.10;;;;;;;7.69;100.00;98118.72;4077459;29;20214;-85
2023/12/20 03:10:17;;;;;;;6.72;6.03;;;;;;;7.69;100.00;98125.69;4078410;29;20218;-86
2023/12/20 03:12:30;;;;;;;6.97;5.60;;;;;;;7.72;100.00;98122.91;4088963;29;20226;-86
2023/12/20 03:14:33;;;;;;;8.18;5.90;;;;;;;7.72;100.00;98123.75;4058227;29;20773;-86
2023/12/20 03:16:36;;;;;;;6.05;5.10;;;;;;;7.72;100.00;98133.28;4046098;29;20219;-86
2023/12/20 03:18:39;;;;;;;6.93;5.32;;;;;;;7.72;100.00;98133.28;4045229;29;20291;-86
2023/12/20 03:20:42;;;;;;;6.80;5.30;;;;;;;7.72;100.00;98133.28;4075899;29;20211;-86
2023/12/20 03:22:45;;;;;;;6.60;5.20;;;;;;;7.73;100.00;98141.00;4077699;29;20258;-86
2023/12/20 03:24:49;;;;;;;5.80;4.15;;;;;;;7.72;100.00;98134.13;4058416;29;21007;-86
2023/12/20 03:26:52;;;;;;;6.05;4.32;;;;;;;7.73;100.00;98140.16;4062597;29;20210;-86
2023/12/20 03:28:56;;;;;;;4.45;3.55;;;;;;;7.70;100.00;98141.16;4041589;29;20220;-86
2023/12/20 03:30:59;;;;;;;5.47;3.70;;;;;;;7.67;100.00;98146.53;4042869;29;20214;-86
2023/12/20 03:33:03;;;;;;;3.70;2.80;;;;;;;7.68;100.00;98143.03;4044027;29;20222;-86
2023/12/20 03:35:07;;;;;;;3.35;2.70;;;;;;;7.67;100.00;98145.69;4056967;29;20219;-86
2023/12/20 03:37:10;;;;;;;3.83;2.90;;;;;;;7.66;100.00;98146.63;4059808;29;20217;-86
2023/12/20 03:39:12;;;;;;;3.58;2.50;;;;;;;7.66;100.00;98144.84;4041767;29;20860;-86
2023/12/20 03:41:16;;;;;;;3.38;2.03;;;;;;;7.66;100.00;98146.63;4058420;29;20318;-86
2023/12/20 03:43:18;;;;;;;2.92;1.88;;;;;;;7.64;100.00;98146.69;4060247;29;20203;-86
2023/12/20 03:45:23;;;;;;;4.95;1.90;;;;;;;7.66;100.00;98146.63;4055943;29;20314;-86
2023/12/20 03:47:26;;;;;;;2.70;1.65;;;;;;;7.60;100.00;98132.22;4057453;29;20207;-86
2023/12/20 03:49:29;;;;;;;2.10;1.40;;;;;;;7.56;100.00;98137.66;4040673;29;20236;-86
2023/12/20 03:51:32;;;;;;;2.38;1.50;;;;;;;7.55;100.00;98141.19;4042160;29;20207;-85
2023/12/20 03:53:35;;;;;;;2.30;1.20;;;;;;;7.55;100.00;98138.59;4045445;29;20296;-86
2023/12/20 03:55:38;;;;;;;2.03;1.08;;;;;;;7.56;100.00;98137.66;4056250;29;20211;-85
2023/12/20 03:57:41;;;;;;;1.70;1.00;;;;;;;7.58;100.00;98146.22;4058550;29;20210;-86
2023/12/20 03:59:45;;;;;;;1.40;0.80;;;;;;;7.57;100.00;98145.34;4059660;29;20257;-86
2023/12/20 04:01:48;;;;;;;2.10;0.98;;;;;;;7.56;100.00;98133.31;4058436;29;20230;-85
2023/12/20 04:03:52;;;;;;;1.50;0.90;;;;;;;7.59;100.00;98134.88;4039747;29;20212;-86
2023/12/20 04:05:55;;;;;;;1.70;0.85;;;;;;;7.57;100.00;98136.75;4058925;29;20207;-86
2023/12/20 04:08:00;;;;;;;1.65;0.80;;;;;;;7.53;100.00;98136.09;4060908;29;20233;-86
2023/12/20 04:10:04;;;;;;;1.70;0.98;;;;;;;7.54;100.00;98142.09;4055666;29;20209;-86
2023/12/20 04:12:07;;;;;;;2.00;0.90;;;;;;;7.51;100.00;98143.09;4043943;29;20253;-85
2023/12/20 04:14:10;;;;;;;2.20;0.98;;;;;;;7.55;100.00;98138.59;4072200;29;20247;-86
2023/12/20 04:16:12;;;;;;;2.25;1.20;;;;;;;7.54;100.00;98144.69;4057903;29;20209;-86
2023/12/20 04:18:17;;;;;;;1.67;1.00;;;;;;;7.55;100.00;98148.97;4072152;29;20202;-86
2023/12/20 04:20:20;;;;;;;1.52;0.90;;;;;;;7.53;100.00;98145.59;4074130;29;20229;-86
2023/12/20 04:22:23;;;;;;;1.35;0.77;;;;;;;7.52;100.00;98147.38;4060993;29;20210;-86
2023/12/20 04:24:26;;;;;;;1.40;0.82;;;;;;;7.56;100.00;98143.69;4043121;29;20262;-86
2023/12/20 04:26:30;;;;;;;1.92;0.85;;;;;;;7.51;100.00;98144.88;4073530;29;20725;-86
2023/12/20 04:28:33;;;;;;;1.70;0.90;;;;;;;7.51;100.00;98152.66;4073771;29;20253;-87
2023/12/20 04:30:36;;;;;;;1.30;0.82;;;;;;;7.52;100.00;98151.75;4058416;29;20298;-87
2023/12/20 04:32:39;;;;;;;1.23;0.75;;;;;;;7.52;100.00;98151.75;4046600;29;20308;-87
2023/12/20 04:34:43;;;;;;;1.80;1.10;;;;;;;7.55;100.00;98167.97;4046782;29;20208;-88
2023/12/20 04:36:47;;;;;;;1.70;1.05;;;;;;;7.57;100.00;98178.25;4074572;29;20337;-87
2023/12/20 04:38:50;;;;;;;1.83;0.98;;;;;;;7.56;100.00;98172.25;4074375;29;20336;-87
2023/12/20 04:40:53;;;;;;;1.58;0.80;;;;;;;7.58;100.00;98173.00;4058705;29;20278;-87
2023/12/20 04:42:56;;;;;;;1.52;0.88;;;;;;;7.58;100.00;98172.16;4059815;29;20263;-87
2023/12/20 04:44:59;;;;;;;1.50;0.90;;;;;;;7.61;100.00;98187.56;4058105;29;20209;-87
2023/12/20 04:47:03;;;;;;;1.60;0.80;;;;;;;7.59;100.00;98189.38;4059630;29;20289;-87
2023/12/20 04:49:06;;;;;;;1.45;0.70;;;;;;;7.57;100.00;98188.63;4075121;29;20294;-88
2023/12/20 04:51:11;;;;;;;1.33;0.77;;;;;;;7.54;100.00;98181.84;4044995;29;20211;-88
2023/12/20 04:53:17;;;;;;;1.40;0.70;;;;;;;7.55;100.00;98180.13;4058194;29;20229;-87
2023/12/20 04:55:20;;;;;;;1.65;0.90;;;;;;;7.56;100.00;98181.78;4046553;29;20669;-87
2023/12/20 04:57:23;;;;;;;1.65;0.90;;;;;;;7.58;100.00;98192.91;4061450;29;20214;-87
2023/12/20 04:59:26;;;;;;;2.35;1.00;;;;;;;7.54;100.00;98191.41;4060106;29;20357;-87
2023/12/20 05:01:29;;;;;;;1.70;0.98;;;;;;;7.53;100.00;98192.31;4056774;29;20241;-87
2023/12/20 05:03:32;;;;;;;1.58;0.95;;;;;;;7.52;100.00;98183.69;4045065;29;20249;-87
2023/12/20 05:05:37;;;;;;;1.77;0.80;;;;;;;7.55;100.00;98191.31;4073045;29;20230;-87
2023/12/20 05:07:41;;;;;;;1.58;1.05;;;;;;;7.58;100.00;98187.72;4073955;29;20314;-87
2023/12/20 05:09:45;;;;;;;1.70;1.00;;;;;;;7.58;100.00;98192.91;4073711;29;20697;-87
2023/12/20 05:11:48;;;;;;;1.50;1.02;;;;;;;7.60;100.00;98183.28;4055563;29;20315;-87
2023/12/20 05:13:52;;;;;;;1.70;0.93;;;;;;;7.59;100.00;98185.06;4042450;29;20242;-87
2023/12/20 05:15:54;;;;;;;1.77;1.10;;;;;;;7.60;100.00;98186.69;4052446;29;20241;-87
2023/12/20 05:17:57;;;;;;;1.55;0.95;;;;;;;7.58;100.00;98195.50;4058817;29;20227;-88
2023/12/20 05:19:59;;;;;;;1.75;1.08;;;;;;;7.59;100.00;98205.81;4049637;29;20599;-88
2023/12/20 05:22:03;;;;;;;1.80;1.20;;;;;;;7.64;100.00;98211.56;4057748;29;20235;-87
2023/12/20 05:24:07;;;;;;;2.20;1.30;;;;;;;7.67;100.00;98208.00;4057878;29;20251;-88
2023/12/20 05:26:10;;;;;;;2.35;1.30;;;;;;;7.67;100.00;98202.78;4076601;28;20317;-88
2023/12/20 05:28:13;;;;;;;1.65;1.02;;;;;;;7.67;100.00;98203.63;4063738;29;20316;-87
2023/12/20 05:30:17;;;;;;;1.95;1.20;;;;;;;7.65;100.00;98204.63;4063498;29;20257;-88
2023/12/20 05:32:20;;;;;;;2.17;1.40;;;;;;;7.64;100.00;98208.16;4074520;29;20317;-87
2023/12/20 05:34:23;;;;;;;2.25;1.35;;;;;;;7.64;100.00;98211.56;4076442;29;20601;-87
2023/12/20 05:36:27;;;;;;;2.10;1.38;;;;;;;7.67;100.00;98210.59;4045396;29;20226;-88
2023/12/20 05:38:31;;;;;;;2.05;1.30;;;;;;;7.69;100.00;98213.91;4057900;29;20229;-86
2023/12/20 05:40:36;;;;;;;2.28;1.40;;;;;;;7.70;100.00;98210.41;4049752;29;20303;-86
2023/12/20 05:42:39;;;;;;;1.90;1.60;;;;;;;7.73;100.00;98223.22;4056271;29;20219;-86
2023/12/20 05:44:42;;;;;;;3.30;1.40;;;;;;;7.75;100.00;98221.38;4062290;29;20817;-86
2023/12/20 05:46:45;;;;;;;1.95;1.40;;;;;;;7.75;100.00;98226.56;4062459;29;20589;-86
2023/12/20 05:48:48;;;;;;;2.00;1.55;;;;;;;7.77;100.00;98235.94;4043935;29;20251;-86
2023/12/20 05:50:52;;;;;;;1.98;1.42;;;;;;;7.78;100.00;98231.59;4045648;29;23837;-86
2023/12/20 05:52:55;;;;;;;2.33;1.88;;;;;;;7.78;100.00;98236.78;4045789;29;20230;-86
2023/12/20 05:55:01;;;;;;;2.22;1.65;;;;;;;7.79;100.00;98241.06;4059058;29;20217;-86
2023/12/20 05:57:06;;;;;;;2.65;1.70;;;;;;;7.79;100.00;98244.47;4062768;29;20779;-85
2023/12/20 05:59:09;;;;;;;2.00;1.60;;;;;;;7.80;100.00;98247.91;4058453;29;20318;-86
2023/12/20 06:01:12;;;;;;;2.65;2.17;;;;;;;7.75;100.00;98257.72;4050622;29;20241;-85
2023/12/20 06:03:15;;;;;;;3.25;2.38;;;;;;;7.75;100.00;98257.72;4047345;29;20276;-86
2023/12/20 06:05:18;;;;;;;3.10;2.33;;;;;;;7.76;100.00;98260.22;4049447;29;20236;-85
2023/12/20 06:07:22;;;;;;;3.35;1.85;;;;;;;7.75;100.00;98266.31;4059316;29;21056;-85
2023/12/20 06:09:25;;;;;;;3.05;2.40;;;;;;;7.74;100.00;98269.00;4062733;29;20223;-85
2023/12/20 06:11:29;;;;;;;3.28;2.75;;;;;;;7.74;100.00;98271.59;4061215;29;20634;-85
2023/12/20 06:13:34;;;;;;;2.90;2.55;;;;;;;7.75;100.00;98266.31;4058768;29;20240;-85
2023/12/20 06:15:37;;;;;;;3.03;2.40;;;;;;;7.75;100.00;98268.09;4075243;29;20270;-86
2023/12/20 06:17:40;;;;;;;3.85;2.35;;;;;;;7.77;100.00;98266.25;4062409;29;20317;-85
2023/12/20 06:19:44;;;;;;;3.13;2.75;;;;;;;7.77;100.00;98261.06;4061010;29;20266;-86
2023/12/20 06:21:48;;;;;;;3.30;2.60;;;;;;;7.78;100.00;98266.16;4044079;29;20311;-86
2023/12/20 06:23:51;;;;;;;2.90;2.58;;;;;;;7.78;100.00;98267.94;4043009;29;20237;-85
2023/12/20 06:25:55;;;;;;;3.40;2.80;;;;;;;7.80;100.00;98268.66;4042082;29;20815;-86
2023/12/20 06:27:57;;;;;;;5.05;3.10;;;;;;;7.81;100.00;98272.94;4059609;29;20233;-86
2023/12/20 06:30:01;;;;;;;3.80;2.60;;;;;;;7.81;100.00;98275.56;4064950;29;20721;-85
2023/12/20 06:32:04;;;;;;;2.70;2.40;;;;;;;7.82;100.00;98279.78;4060802;29;20343;-86
2023/12/20 06:34:07;;;;;;;3.92;2.95;;;;;;;7.82;100.00;98272.88;4044804;29;20683;-86
2023/12/20 06:36:12;;;;;;;3.28;2.60;;;;;;;7.83;100.00;98276.28;4061880;29;20251;-85
2023/12/20 06:38:15;;;;;;;3.55;2.70;;;;;;;7.84;100.00;98277.97;4057878;29;20224;-86
2023/12/20 06:40:19;;;;;;;3.80;3.20;;;;;;;7.83;100.00;98265.91;4046257;29;20255;-85
2023/12/20 06:42:22;;;;;;;3.65;2.95;;;;;;;7.82;100.00;98274.59;4044440;29;20593;-86
2023/12/20 06:44:24;;;;;;;4.18;3.00;;;;;;;7.82;100.00;98272.88;4061146;29;20364;-86
2023/12/20 06:46:29;;;;;;;3.33;2.95;;;;;;;7.83;100.00;98273.69;4060484;29;21129;-85
2023/12/20 06:48:32;;;;;;;3.35;2.95;;;;;;;7.80;100.00;98279.06;4043885;29;20596;-85
2023/12/20 06:50:39;;;;;;;3.25;2.80;;;;;;;7.81;100.00;98278.97;4074303;29;20232;-86
2023/12/20 06:52:43;;;;;;;4.25;3.45;;;;;;;7.81;100.00;98278.16;4061973;29;20577;-85
2023/12/20 06:54:46;;;;;;;4.05;3.65;;;;;;;7.83;100.00;98286.69;4059584;29;20227;-86
2023/12/20 06:56:49;;;;;;;4.75;3.60;;;;;;;7.80;100.00;98279.88;4077445;29;20258;-86
2023/12/20 06:58:52;;;;;;;4.03;3.33;;;;;;;7.83;100.00;98291.88;4047119;29;20233;-86
2023/12/20 07:00:55;;;;;;;3.70;3.30;;;;;;;7.78;100.00;98293.88;4043854;29;20255;-85
2023/12/20 07:03:00;;;;;;;4.38;3.50;;;;;;;7.76;100.00;98298.34;4072785;29;20849;-85
2023/12/20 07:05:04;;;;;;;4.22;3.35;;;;;;;7.74;100.00;98302.75;4056507;29;20219;-86
2023/12/20 07:07:07;;;;;;;5.00;3.90;;;;;;;7.72;100.00;98302.00;4059339;29;20712;-85
2023/12/20 07:09:13;;;;;;;5.03;4.20;;;;;;;7.71;100.00;98306.38;4062298;29;20242;-85
2023/12/20 07:11:16;;;;;;;4.85;4.35;;;;;;;7.70;100.00;98306.44;4074153;29;20232;-85
2023/12/20 07:13:18;;;;;;;5.22;3.90;;;;;;;7.73;100.00;98308.88;4061514;29;20240;-85
2023/12/20 07:15:22;;;;;;;4.95;4.22;;;;;;;7.69;100.00;98305.59;4061394;29;20263;-85
2023/12/20 07:17:25;;;;;;;5.72;4.20;;;;;;;7.70;100.00;98307.28;4047194;29;20223;-86
2023/12/20 07:19:30;;;;;;;5.97;4.97;;;;;;;7.72;100.00;98304.59;4075315;29;20227;-86
2023/12/20 07:21:33;;;;;;;5.43;4.45;;;;;;;7.70;100.00;98307.28;4055961;29;20274;-86
2023/12/20 07:23:37;;;;;;;5.47;4.72;;;;;;;7.71;100.00;98316.75;4051803;29;20306;-85
2023/12/20 07:25:40;;;;;;;6.03;4.97;;;;;;;7.73;100.00;98329.66;4061753;29;20256;-85
2023/12/20 07:27:43;;;;;;;5.03;4.10;;;;;;;7.76;100.00;98329.47;4063248;29;20235;-86
2023/12/20 07:29:47;;;;;;;8.23;4.45;;;;;;;7.76;100.00;98342.47;4042313;29;20232;-86
2023/12/20 07:31:51;;;;;;;5.15;4.55;;;;;;;7.80;100.00;98333.56;4057509;29;20231;-86
2023/12/20 07:33:55;;;;;;;5.25;4.75;;;;;;;7.82;100.00;98326.53;4056898;29;20764;-86
2023/12/20 07:36:00;;;;;;;5.85;5.20;;;;;;;7.83;100.00;98343.78;4046276;29;20289;-86
2023/12/20 07:38:04;;;;;;;5.57;4.97;;;;;;;7.83;100.00;98344.63;4061421;29;20797;-86
2023/12/20 07:40:08;;;;;;;6.30;4.90;;;;;;;7.83;100.00;98354.16;4062589;29;20223;-86
2023/12/20 07:42:12;;;;;;;6.50;5.15;;;;;;;7.81;100.00;98348.25;4055479;29;20232;-86
2023/12/20 07:44:15;;;;;;;6.10;5.30;;;;;;;7.80;100.00;98346.53;4058571;29;20791;-86
2023/12/20 07:46:18;;;;;;;5.57;5.00;;;;;;;7.80;100.00;98349.97;4060544;29;20314;-85
2023/12/20 07:48:22;;;;;;;6.85;5.68;;;;;;;7.80;100.00;98346.53;4062564;29;20232;-85
2023/12/20 07:50:26;;;;;;;5.88;5.28;;;;;;;7.82;100.00;98352.50;4060801;29;20225;-86
2023/12/20 07:52:31;;;;;;;6.63;5.43;;;;;;;7.84;100.00;98363.66;4075667;29;20216;-86
2023/12/20 07:54:34;;;;;;;5.72;5.07;;;;;;;7.82;100.00;98355.94;4065482;29;20228;-86
2023/12/20 07:56:39;;;;;;;8.35;6.60;;;;;;;7.84;100.00;98361.88;4054586;29;20734;-85
2023/12/20 07:58:43;;;;;;;6.40;5.38;;;;;;;7.85;100.00;98362.72;4046722;29;20239;-86
2023/12/20 08:00:55;;;;;;;6.50;5.53;;;;;;;7.86;100.00;98360.03;4074113;29;20226;-86
2023/12/20 08:02:58;;;;;;;7.85;6.13;;;;;;;7.87;100.00;98368.69;4057200;29;20230;-85
2023/12/20 08:05:02;;;;;;;7.88;6.47;;;;;;;7.89;100.00;98370.25;4058364;29;20233;-86
2023/12/20 08:07:05;;;;;;;6.82;6.10;;;;;;;7.89;100.00;98364.22;4040591;29;20216;-86
2023/12/20 08:09:10;;;;;;;7.40;6.55;;;;;;;7.87;100.00;98366.91;4058232;29;20249;-86
2023/12/20 08:11:12;;;;;;;7.07;6.13;;;;;;;7.87;100.00;98366.09;4041536;29;20228;-86
2023/12/20 08:13:15;;;;;;;7.30;5.80;;;;;;;7.88;100.00;98360.81;4047788;29;20239;-86
2023/12/20 08:15:19;;;;;;;6.75;6.07;;;;;;;7.89;100.00;98369.44;4041127;29;20328;-85
2023/12/20 08:17:23;;;;;;;8.18;6.72;;;;;;;7.87;100.00;98368.69;4070261;29;20232;-85
2023/12/20 08:19:26;;;;;;;7.65;5.90;;;;;;;7.88;100.00;98378.13;4060851;29;20218;-87
2023/12/20 08:21:30;;;;;;;6.90;5.82;;;;;;;7.89;100.00;98377.22;4058776;29;20728;-87
2023/12/20 08:23:36;;;;;;;8.85;6.63;;;;;;;7.89;100.00;98374.63;4062980;29;20319;-89
2023/12/20 08:25:41;;;;;;;7.07;5.95;;;;;;;7.92;100.00;98371.84;4047166;29;20225;-86
2023/12/20 08:27:44;;;;;;;6.40;5.40;;;;;;;7.93;100.00;98370.94;4057327;29;20240;-87
2023/12/20 08:29:47;;;;;;;6.53;5.50;;;;;;;7.97;100.00;98386.28;4044828;29;20230;-87
2023/12/20 08:31:53;;;;;;;6.90;6.20;;;;;;;8.03;100.00;98389.38;4063809;29;20248;-87
2023/12/20 08:33:57;;;;;;;7.32;6.25;;;;;;;8.00;100.00;98394.75;4062168;29;20225;-86
2023/12/20 08:36:05;;;;;;;9.38;5.95;;;;;;;8.00;100.00;98397.34;4060381;29;20233;-87
2023/12/20 08:38:08;;;;;;;6.78;5.93;;;;;;;7.99;100.00;98402.63;4061648;29;20223;-87
2023/12/20 08:40:10;;;;;;;7.40;6.00;;;;;;;8.02;100.00;98397.25;4044426;29;20747;-86
2023/12/20 08:42:15;;;;;;;6.93;6.03;;;;;;;8.03;100.00;98409.34;4059450;29;20247;-86
2023/12/20 08:44:18;;;;;;;6.50;5.70;;;;;;;8.04;100.00;98405.78;4045126;29;20310;-87
2023/12/20 08:46:22;;;;;;;6.15;5.47;;;;;;;8.05;100.00;98405.72;4055978;29;20226;-87
2023/12/20 08:48:25;;;;;;;6.47;5.30;;;;;;;8.07;100.00;98413.41;4047598;29;20227;-86
2023/12/20 08:50:28;;;;;;;6.88;5.60;;;;;;;8.10;100.00;98410.66;4061684;29;20223;-86
2023/12/20 08:52:32;;;;;;;6.95;6.25;;;;;;;8.13;100.00;98407.94;4055831;29;20277;-85
2023/12/20 08:54:35;;;;;;;7.32;5.60;;;;;;;8.15;100.00;98401.75;4048746;29;20227;-87
2023/12/20 08:56:38;;;;;;;6.32;4.93;;;;;;;8.26;100.00;98398.56;4076033;29;20290;-86
2023/12/20 08:58:43;;;;;;;7.53;4.72;;;;;;;8.38;100.00;98400.50;4060416;29;20282;-86
2023/12/20 09:00:46;;;;;;;6.35;5.40;;;;;;;8.49;100.00;98397.25;4061060;29;20286;-86
2023/12/20 09:02:49;;;;;;;8.80;7.43;;;;;;;8.62;100.00;98405.19;4066043;29;20290;-87
2023/12/20 09:04:52;;;;;;;6.70;6.00;;;;;;;8.74;99.94;98401.91;4058459;29;20232;-86
2023/12/20 09:06:56;;;;;;;9.00;5.00;;;;;;;8.86;99.48;98399.44;4063885;29;20230;-86
2023/12/20 09:08:59;;;;;;;7.63;6.22;;;;;;;8.91;98.81;98400.00;4049185;29;20695;-86
2023/12/20 09:11:02;;;;;;;9.23;5.40;;;;;;;8.96;97.89;98396.25;4064225;29;20623;-87
2023/12/20 09:13:06;;;;;;;8.48;5.43;;;;;;;8.99;97.04;98396.06;4047501;29;20231;-86
2023/12/20 09:15:11;;;;;;;5.72;4.22;;;;;;;9.06;96.32;98392.16;4059032;29;20721;-87
2023/12/20 09:17:13;;;;;;;9.60;5.70;;;;;;;9.11;96.56;98400.56;4078452;29;20801;-87
2023/12/20 09:19:16;;;;;;;10.57;5.57;;;;;;;9.18;96.41;98386.25;4048735;29;20241;-87
2023/12/20 09:21:20;;;;;;;16.45;5.20;;;;;;;9.22;95.78;98392.97;4063361;29;20237;-87
2023/12/20 09:23:23;;;;;;;12.63;5.72;;;;;;;9.28;95.32;98392.63;4064621;29;20324;-87
2023/12/20 09:25:26;;;;;;;14.05;4.95;;;;;;;9.33;94.87;98400.97;4048997;29;20231;-90
2023/12/20 09:27:30;;;;;;;14.55;4.22;;;;;;;9.37;93.88;98401.63;4051478;29;20280;-88
2023/12/20 09:29:34;;;;;;;5.75;4.15;;;;;;;9.38;94.18;98403.31;4059319;29;20224;-89
2023/12/20 09:31:37;;;;;;;5.22;4.20;;;;;;;9.40;93.26;98405.75;4065018;29;20808;-90
2023/12/20 09:33:41;;;;;;;7.63;4.00;;;;;;;9.41;91.96;98396.16;4078417;29;20694;-89
2023/12/20 09:35:45;;;;;;;3.70;3.13;;;;;;;9.46;92.69;98392.38;4063950;29;20337;-91
2023/12/20 09:37:49;;;;;;;6.40;3.60;;;;;;;9.56;92.98;98408.28;4065487;29;20240;-89
2023/12/20 09:39:52;;;;;;;4.75;3.50;;;;;;;9.58;91.85;98407.25;4065342;29;20218;-89
2023/12/20 09:42:00;;;;;;;5.25;3.40;;;;;;;9.60;91.88;98405.41;4078573;29;20225;-91
2023/12/20 09:44:04;;;;;;;4.45;2.90;;;;;;;9.62;91.25;98413.13;4047440;29;20227;-90
2023/12/20 09:46:08;;;;;;;4.70;3.88;;;;;;;9.64;90.68;98406.06;4058363;29;20229;-90